createdAt,value
2022-12-19T00:00:06.969Z,247.88
2022-12-19T00:00:47.898Z,248.05
2022-12-19T00:01:22.077Z,244.32
2022-12-19T00:01:54.519Z,246.90
2022-12-19T00:02:26.888Z,248.25
2022-12-19T00:02:59.353Z,245.60
2022-12-19T00:03:32.185Z,243.93
2022-12-19T00:04:08.335Z,247.57
2022-12-19T00:04:41.263Z,243.43
2022-12-19T00:05:13.750Z,236.85
2022-12-19T00:05:45.972Z,239.13
2022-12-19T00:06:18.834Z,234.73
2022-12-19T00:06:51.141Z,240.20
2022-12-19T00:07:23.415Z,234.27
2022-12-19T00:07:55.686Z,243.40
2022-12-19T00:08:29.253Z,230.25
2022-12-19T00:09:01.601Z,237.55
2022-12-19T00:09:33.784Z,231.63
2022-12-19T00:10:08.048Z,243.77
2022-12-19T00:10:40.592Z,233.02
2022-12-19T00:11:14.046Z,238.38
2022-12-19T00:11:47.848Z,235.13
2022-12-19T00:12:20.294Z,231.10
2022-12-19T00:12:52.627Z,231.38
2022-12-19T00:13:25.273Z,244.25
2022-12-19T00:13:58.460Z,234.02
2022-12-19T00:14:30.906Z,231.68
2022-12-19T00:15:03.775Z,239.23
2022-12-19T00:15:36.593Z,237.65
2022-12-19T00:16:11.968Z,233.40
2022-12-19T00:16:44.353Z,238.65
2022-12-19T00:17:17.099Z,239.27
2022-12-19T00:17:49.365Z,233.18
2022-12-19T00:18:21.886Z,235.90
2022-12-19T00:18:55.439Z,237.02
2022-12-19T00:19:27.947Z,235.13
2022-12-19T00:20:00.290Z,236.70
2022-12-19T00:20:32.511Z,236.57
2022-12-19T00:21:05.658Z,236.38
2022-12-19T00:21:38.180Z,237.20
2022-12-19T00:22:11.397Z,233.93
2022-12-19T00:22:43.797Z,232.20
2022-12-19T00:23:16.209Z,238.77
2022-12-19T00:23:48.980Z,241.93
2022-12-19T00:24:21.932Z,244.55
2022-12-19T00:24:54.237Z,235.13
2022-12-19T00:25:26.701Z,231.88
2022-12-19T00:26:07.365Z,234.27
2022-12-19T00:26:40.101Z,238.13
2022-12-19T00:27:12.322Z,241.13
2022-12-19T00:27:44.620Z,242.82
2022-12-19T00:28:17.033Z,233.60
2022-12-19T00:28:53.557Z,234.82
2022-12-19T00:29:25.926Z,237.95
2022-12-19T00:29:58.254Z,232.48
2022-12-19T00:30:30.589Z,234.65
2022-12-19T00:31:04.636Z,226.80
2022-12-19T00:31:37.312Z,232.68
2022-12-19T00:32:09.677Z,238.23
2022-12-19T00:32:47.841Z,236.13
2022-12-19T00:33:20.250Z,232.25
2022-12-19T00:33:52.535Z,236.10
2022-12-19T00:34:24.814Z,233.55
2022-12-19T00:34:57.039Z,234.23
2022-12-19T00:35:31.571Z,238.25
2022-12-19T00:36:05.644Z,229.25
2022-12-19T00:36:37.964Z,232.57
2022-12-19T00:37:12.558Z,238.25
2022-12-19T00:37:48.451Z,239.90
2022-12-19T00:38:22.466Z,231.40
2022-12-19T00:38:55.528Z,232.13
2022-12-19T00:39:28.195Z,236.50
2022-12-19T00:40:00.481Z,244.52
2022-12-19T00:40:32.840Z,228.55
2022-12-19T00:41:09.114Z,238.20
2022-12-19T00:41:42.536Z,237.05
2022-12-19T00:42:15.280Z,240.32
2022-12-19T00:42:51.830Z,232.70
2022-12-19T00:43:25.794Z,235.95
2022-12-19T00:44:02.985Z,242.73
2022-12-19T00:44:36.976Z,239.07
2022-12-19T00:45:09.505Z,236.55
2022-12-19T00:45:42.321Z,231.02
2022-12-19T00:46:15.645Z,239.70
2022-12-19T00:46:52.816Z,239.55
2022-12-19T00:47:28.069Z,238.63
2022-12-19T00:48:00.562Z,226.00
2022-12-19T00:48:33.065Z,233.50
2022-12-19T00:49:05.961Z,230.55
2022-12-19T00:49:38.219Z,238.50
2022-12-19T00:50:11.363Z,235.80
2022-12-19T00:50:43.949Z,230.10
2022-12-19T00:51:17.179Z,241.70
2022-12-19T00:51:49.654Z,232.68
2022-12-19T00:52:21.981Z,232.27
2022-12-19T00:52:55.832Z,232.27
2022-12-19T00:53:28.324Z,234.82
2022-12-19T00:54:03.971Z,236.15
2022-12-19T00:54:37.819Z,239.50
2022-12-19T00:55:14.158Z,239.48
2022-12-19T00:55:51.567Z,236.73
2022-12-19T00:56:28.081Z,238.20
2022-12-19T00:57:00.546Z,240.43
2022-12-19T00:57:33.050Z,231.20
2022-12-19T00:58:06.140Z,238.68
2022-12-19T00:58:43.404Z,234.32
2022-12-19T00:59:24.689Z,234.30
2022-12-19T01:00:32.148Z,231.45
2022-12-19T01:01:08.764Z,233.85
2022-12-19T01:01:42.048Z,229.07
2022-12-19T01:02:14.613Z,237.35
2022-12-19T01:02:47.156Z,228.63
2022-12-19T01:03:19.539Z,234.27
2022-12-19T01:04:26.580Z,231.65
2022-12-19T01:04:46.021Z,237.88
2022-12-19T01:05:18.383Z,233.00
2022-12-19T01:05:51.038Z,235.32
2022-12-19T01:06:23.926Z,237.13
2022-12-19T01:07:01.886Z,237.40
2022-12-19T01:08:09.045Z,242.73
2022-12-19T01:08:41.771Z,241.65
2022-12-19T01:09:14.026Z,237.90
2022-12-19T01:09:47.512Z,237.35
2022-12-19T01:10:20.867Z,230.35
2022-12-19T01:10:53.801Z,233.73
2022-12-19T01:11:44.398Z,243.15
2022-12-19T01:12:35.267Z,234.27
2022-12-19T01:13:07.484Z,225.00
2022-12-19T01:13:40.648Z,236.88
2022-12-19T01:14:20.792Z,236.13
2022-12-19T01:15:02.888Z,237.02
2022-12-19T01:15:38.911Z,231.93
2022-12-19T01:16:13.269Z,237.20
2022-12-19T01:16:45.619Z,239.60
2022-12-19T01:17:17.939Z,239.45
2022-12-19T01:17:50.686Z,236.85
2022-12-19T01:18:24.006Z,236.18
2022-12-19T01:18:56.361Z,240.35
2022-12-19T01:19:30.622Z,233.10
2022-12-19T01:20:02.870Z,231.43
2022-12-19T01:20:35.236Z,235.23
2022-12-19T01:21:11.601Z,234.63
2022-12-19T01:21:43.922Z,237.07
2022-12-19T01:22:16.963Z,232.70
2022-12-19T01:22:51.843Z,242.80
2022-12-19T01:23:24.176Z,230.40
2022-12-19T01:23:56.459Z,232.45
2022-12-19T01:24:28.846Z,235.20
2022-12-19T01:25:01.119Z,231.65
2022-12-19T01:25:34.335Z,232.30
2022-12-19T01:26:08.883Z,233.52
2022-12-19T01:26:41.094Z,235.38
2022-12-19T01:27:13.377Z,234.48
2022-12-19T01:27:45.630Z,234.07
2022-12-19T01:28:17.841Z,236.63
2022-12-19T01:28:51.350Z,235.40
2022-12-19T01:29:23.722Z,233.57
2022-12-19T01:29:56.038Z,236.55
2022-12-19T01:30:29.127Z,232.18
2022-12-19T01:31:05.311Z,234.85
2022-12-19T01:31:40.231Z,236.70
2022-12-19T01:32:12.560Z,233.77
2022-12-19T01:32:44.846Z,233.80
2022-12-19T01:33:18.052Z,234.95
2022-12-19T01:33:50.313Z,236.00
2022-12-19T01:34:23.918Z,229.10
2022-12-19T01:34:56.377Z,236.25
2022-12-19T01:35:28.706Z,229.25
2022-12-19T01:36:07.701Z,237.05
2022-12-19T01:36:40.410Z,235.57
2022-12-19T01:37:12.701Z,239.32
2022-12-19T01:37:44.933Z,238.63
2022-12-19T01:38:18.321Z,233.25
2022-12-19T01:38:50.600Z,236.32
2022-12-19T01:39:22.900Z,233.80
2022-12-19T01:39:57.352Z,237.27
2022-12-19T01:40:29.582Z,230.32
2022-12-19T01:41:03.040Z,231.10
2022-12-19T01:41:35.383Z,237.10
2022-12-19T01:42:19.597Z,234.48
2022-12-19T01:42:56.164Z,234.77
2022-12-19T01:43:32.404Z,232.27
2022-12-19T01:44:08.080Z,235.00
2022-12-19T01:44:40.438Z,235.35
2022-12-19T01:45:15.266Z,235.48
2022-12-19T01:45:48.940Z,234.90
2022-12-19T01:46:47.607Z,234.75
2022-12-19T01:47:19.910Z,222.18
2022-12-19T01:48:02.893Z,225.82
2022-12-19T01:48:37.046Z,228.27
2022-12-19T01:49:29.923Z,231.75
2022-12-19T01:50:03.698Z,228.98
2022-12-19T01:50:38.664Z,233.18
2022-12-19T01:51:16.587Z,231.10
2022-12-19T01:51:49.729Z,227.98
2022-12-19T01:52:23.708Z,233.65
2022-12-19T01:52:57.523Z,234.02
2022-12-19T01:53:48.706Z,235.15
2022-12-19T01:54:23.912Z,229.80
2022-12-19T01:54:56.151Z,227.70
2022-12-19T01:55:31.319Z,230.20
2022-12-19T01:56:09.063Z,232.10
2022-12-19T01:56:44.214Z,228.32
2022-12-19T01:57:18.357Z,230.70
2022-12-19T01:57:51.071Z,232.85
2022-12-19T01:58:24.227Z,231.57
2022-12-19T01:59:06.062Z,227.73
2022-12-19T02:00:00.168Z,232.38
2022-12-19T02:00:32.899Z,230.25
2022-12-19T02:01:06.039Z,232.38
2022-12-19T02:01:50.919Z,226.50
2022-12-19T02:02:33.258Z,224.95
2022-12-19T02:03:11.234Z,231.18
2022-12-19T02:03:50.596Z,227.45
2022-12-19T02:04:24.351Z,236.00
2022-12-19T02:04:57.338Z,231.48
2022-12-19T02:05:29.936Z,228.88
2022-12-19T02:06:03.073Z,231.63
2022-12-19T02:06:35.625Z,233.52
2022-12-19T02:07:15.174Z,227.00
2022-12-19T02:07:48.657Z,234.63
2022-12-19T02:08:21.607Z,229.68
2022-12-19T02:08:55.833Z,227.07
2022-12-19T02:09:28.415Z,226.75
2022-12-19T02:10:00.754Z,227.25
2022-12-19T02:10:40.077Z,229.88
2022-12-19T02:11:12.491Z,232.70
2022-12-19T02:11:44.855Z,232.05
2022-12-19T02:12:17.552Z,236.20
2022-12-19T02:12:49.928Z,232.57
2022-12-19T02:13:23.333Z,229.57
2022-12-19T02:13:55.651Z,231.73
2022-12-19T02:14:28.325Z,232.20
2022-12-19T02:15:03.286Z,230.52
2022-12-19T02:15:45.276Z,230.13
2022-12-19T02:16:30.448Z,229.73
2022-12-19T02:17:03.536Z,233.75
2022-12-19T02:17:42.057Z,224.82
2022-12-19T02:18:23.836Z,235.68
2022-12-19T02:19:01.932Z,232.77
2022-12-19T02:19:36.982Z,230.15
2022-12-19T02:20:21.167Z,225.13
2022-12-19T02:21:13.372Z,226.48
2022-12-19T02:21:57.853Z,228.93
2022-12-19T02:22:42.699Z,226.98
2022-12-19T02:23:26.580Z,232.60
2022-12-19T02:24:14.475Z,229.43
2022-12-19T02:25:06.198Z,233.55
2022-12-19T02:25:57.943Z,226.40
2022-12-19T02:26:49.441Z,227.98
2022-12-19T02:27:41.856Z,231.55
2022-12-19T02:28:30.021Z,226.90
2022-12-19T02:29:09.355Z,230.45
2022-12-19T02:29:58.628Z,230.07
2022-12-19T02:30:51.326Z,226.93
2022-12-19T02:31:31.192Z,228.27
2022-12-19T02:32:07.454Z,224.27
2022-12-19T02:32:54.389Z,225.00
2022-12-19T02:33:33.027Z,229.48
2022-12-19T02:34:24.150Z,223.85
2022-12-19T02:35:17.354Z,224.30
2022-12-19T02:35:49.801Z,227.40
2022-12-19T02:36:38.519Z,229.32
2022-12-19T02:37:13.737Z,232.77
2022-12-19T02:37:50.222Z,226.98
2022-12-19T02:38:39.702Z,226.23
2022-12-19T02:39:15.158Z,236.82
2022-12-19T02:40:08.476Z,230.75
2022-12-19T02:41:01.071Z,234.32
2022-12-19T02:41:43.481Z,222.05
2022-12-19T02:42:26.069Z,233.68
2022-12-19T02:43:02.843Z,238.75
2022-12-19T02:43:39.372Z,231.23
2022-12-19T02:44:16.461Z,227.20
2022-12-19T02:44:51.272Z,227.27
2022-12-19T02:45:28.787Z,232.32
2022-12-19T02:46:04.012Z,231.88
2022-12-19T02:46:39.228Z,232.07
2022-12-19T02:47:12.327Z,229.82
2022-12-19T02:47:45.304Z,235.90
2022-12-19T02:48:19.506Z,238.20
2022-12-19T02:48:52.884Z,226.75
2022-12-19T02:49:30.645Z,226.88
2022-12-19T02:50:05.037Z,223.23
2022-12-19T02:50:41.776Z,235.07
2022-12-19T02:51:15.565Z,230.57
2022-12-19T02:51:48.516Z,232.25
2022-12-19T02:52:20.784Z,235.68
2022-12-19T02:52:56.429Z,234.27
2022-12-19T02:53:28.723Z,235.02
2022-12-19T02:54:03.993Z,234.65
2022-12-19T02:54:38.002Z,243.70
2022-12-19T02:55:18.903Z,242.48
2022-12-19T02:55:54.218Z,241.57
2022-12-19T02:56:26.542Z,235.82
2022-12-19T02:57:06.603Z,242.48
2022-12-19T02:57:57.786Z,237.57
2022-12-19T02:58:32.679Z,227.18
2022-12-19T02:59:23.332Z,232.05
2022-12-19T03:00:02.827Z,224.25
2022-12-19T03:00:41.438Z,231.90
2022-12-19T03:01:35.366Z,233.43
2022-12-19T03:02:20.716Z,230.57
2022-12-19T03:03:00.613Z,230.15
2022-12-19T03:03:42.937Z,223.45
2022-12-19T03:04:15.241Z,233.15
2022-12-19T03:04:47.738Z,230.82
2022-12-19T03:05:40.558Z,235.43
2022-12-19T03:06:13.433Z,228.32
2022-12-19T03:06:48.632Z,233.63
2022-12-19T03:07:41.855Z,226.95
2022-12-19T03:08:19.990Z,228.05
2022-12-19T03:08:56.225Z,231.07
2022-12-19T03:09:43.329Z,230.27
2022-12-19T03:10:19.419Z,233.48
2022-12-19T03:10:58.159Z,237.90
2022-12-19T03:11:34.113Z,224.70
2022-12-19T03:12:17.124Z,231.02
2022-12-19T03:13:05.280Z,241.20
2022-12-19T03:13:40.512Z,239.85
2022-12-19T03:14:14.913Z,241.50
2022-12-19T03:14:48.544Z,238.52
2022-12-19T03:15:21.231Z,236.15
2022-12-19T03:15:53.801Z,238.95
2022-12-19T03:16:26.883Z,234.93
2022-12-19T03:17:02.903Z,234.13
2022-12-19T03:17:36.500Z,233.50
2022-12-19T03:18:09.216Z,228.75
2022-12-19T03:18:42.211Z,230.00
2022-12-19T03:19:14.859Z,236.75
2022-12-19T03:19:47.192Z,237.50
2022-12-19T03:20:20.177Z,236.70
2022-12-19T03:20:52.432Z,239.40
2022-12-19T03:21:30.225Z,237.55
2022-12-19T03:22:02.640Z,238.73
2022-12-19T03:22:35.301Z,236.57
2022-12-19T03:23:07.679Z,234.32
2022-12-19T03:23:40.567Z,235.38
2022-12-19T03:24:13.611Z,234.45
2022-12-19T03:24:45.900Z,230.15
2022-12-19T03:25:19.514Z,232.40
2022-12-19T03:25:54.512Z,238.82
2022-12-19T03:26:28.860Z,235.27
2022-12-19T03:27:02.340Z,239.05
2022-12-19T03:27:37.037Z,235.40
2022-12-19T03:28:12.059Z,236.45
2022-12-19T03:28:52.066Z,229.65
2022-12-19T03:30:07.658Z,230.23
2022-12-19T03:30:41.854Z,235.38
2022-12-19T03:31:15.280Z,232.38
2022-12-19T03:31:47.742Z,233.13
2022-12-19T03:32:22.435Z,239.10
2022-12-19T03:32:56.875Z,230.30
2022-12-19T03:33:31.896Z,230.75
2022-12-19T03:34:06.776Z,235.50
2022-12-19T03:34:57.382Z,235.77
2022-12-19T03:35:31.928Z,230.88
2022-12-19T03:36:06.671Z,236.75
2022-12-19T03:36:42.042Z,234.30
2022-12-19T03:37:16.600Z,232.10
2022-12-19T03:37:50.952Z,231.85
2022-12-19T03:38:23.273Z,240.23
2022-12-19T03:38:56.491Z,239.48
2022-12-19T03:39:30.116Z,239.90
2022-12-19T03:40:06.796Z,250.80
2022-12-19T03:40:40.321Z,241.23
2022-12-19T03:41:14.504Z,237.82
2022-12-19T03:42:06.868Z,240.32
2022-12-19T03:42:58.604Z,236.73
2022-12-19T03:43:32.005Z,239.70
2022-12-19T03:44:05.801Z,245.45
2022-12-19T03:44:40.148Z,238.18
2022-12-19T03:45:13.800Z,233.65
2022-12-19T03:45:49.017Z,233.98
2022-12-19T03:46:24.945Z,235.25
2022-12-19T03:47:17.900Z,230.38
2022-12-19T03:47:57.561Z,226.38
2022-12-19T03:48:33.359Z,233.77
2022-12-19T03:49:05.637Z,226.85
2022-12-19T03:49:40.869Z,228.93
2022-12-19T03:50:13.279Z,237.55
2022-12-19T03:50:51.302Z,234.57
2022-12-19T03:51:29.312Z,231.25
2022-12-19T03:52:07.456Z,235.02
2022-12-19T03:52:53.616Z,234.02
2022-12-19T03:53:25.981Z,234.10
2022-12-19T03:53:58.268Z,236.00
2022-12-19T03:54:33.034Z,236.27
2022-12-19T03:55:16.958Z,232.90
2022-12-19T03:55:52.840Z,222.55
2022-12-19T03:56:42.582Z,233.32
2022-12-19T03:57:16.649Z,228.18
2022-12-19T03:57:55.183Z,230.95
2022-12-19T03:58:34.722Z,226.77
2022-12-19T03:59:09.998Z,232.93
2022-12-19T04:00:02.449Z,226.57
2022-12-19T04:00:47.552Z,230.60
2022-12-19T04:01:21.773Z,227.02
2022-12-19T04:01:54.623Z,224.68
2022-12-19T04:02:27.607Z,230.50
2022-12-19T04:03:00.342Z,236.68
2022-12-19T04:03:33.126Z,234.68
2022-12-19T04:04:06.507Z,237.48
2022-12-19T04:04:46.707Z,235.52
2022-12-19T04:05:20.918Z,227.18
2022-12-19T04:05:54.244Z,231.88
2022-12-19T04:06:28.581Z,228.52
2022-12-19T04:07:01.809Z,239.65
2022-12-19T04:07:35.308Z,238.32
2022-12-19T04:08:08.407Z,236.38
2022-12-19T04:08:41.548Z,233.88
2022-12-19T04:09:19.268Z,232.60
2022-12-19T04:09:56.017Z,238.02
2022-12-19T04:10:29.047Z,236.68
2022-12-19T04:11:08.245Z,218.93
2022-12-19T04:11:43.247Z,233.15
2022-12-19T04:12:20.371Z,237.25
2022-12-19T04:12:54.593Z,233.40
2022-12-19T04:13:31.547Z,234.70
2022-12-19T04:14:06.363Z,232.65
2022-12-19T04:14:39.213Z,233.25
2022-12-19T04:15:12.147Z,231.90
2022-12-19T04:15:54.111Z,239.50
2022-12-19T04:16:32.746Z,225.55
2022-12-19T04:17:20.409Z,225.27
2022-12-19T04:17:57.075Z,225.43
2022-12-19T04:18:29.715Z,233.68
2022-12-19T04:19:17.865Z,234.32
2022-12-19T04:20:00.537Z,233.50
2022-12-19T04:20:34.954Z,228.07
2022-12-19T04:21:11.406Z,234.52
2022-12-19T04:21:46.801Z,224.57
2022-12-19T04:22:25.698Z,223.13
2022-12-19T04:23:17.765Z,226.60
2022-12-19T04:23:53.835Z,225.35
2022-12-19T04:24:27.960Z,224.68
2022-12-19T04:25:01.444Z,229.95
2022-12-19T04:25:42.794Z,227.25
2022-12-19T04:26:16.459Z,231.40
2022-12-19T04:26:49.696Z,229.55
2022-12-19T04:27:22.223Z,233.38
2022-12-19T04:27:57.702Z,233.85
2022-12-19T04:28:34.930Z,230.40
2022-12-19T04:29:08.096Z,232.88
2022-12-19T04:29:40.742Z,234.57
2022-12-19T04:30:14.701Z,231.85
2022-12-19T04:30:48.734Z,232.75
2022-12-19T04:31:21.509Z,233.15
2022-12-19T04:31:54.093Z,229.50
2022-12-19T04:32:27.454Z,229.45
2022-12-19T04:33:00.451Z,232.93
2022-12-19T04:33:32.776Z,233.82
2022-12-19T04:34:05.000Z,234.80
2022-12-19T04:34:41.499Z,236.40
2022-12-19T04:35:15.271Z,232.20
2022-12-19T04:35:47.590Z,234.75
2022-12-19T04:36:20.029Z,229.50
2022-12-19T04:36:52.385Z,230.32
2022-12-19T04:37:24.789Z,232.77
2022-12-19T04:37:57.082Z,227.15
2022-12-19T04:38:29.486Z,230.35
2022-12-19T04:39:01.787Z,229.38
2022-12-19T04:39:34.081Z,228.77
2022-12-19T04:40:07.184Z,229.55
2022-12-19T04:40:41.436Z,229.10
2022-12-19T04:41:14.293Z,230.10
2022-12-19T04:41:46.825Z,231.07
2022-12-19T04:42:19.154Z,230.15
2022-12-19T04:42:51.412Z,229.32
2022-12-19T04:43:23.771Z,229.63
2022-12-19T04:43:56.129Z,229.55
2022-12-19T04:44:28.793Z,230.68
2022-12-19T04:45:01.028Z,229.32
2022-12-19T04:45:33.579Z,226.05
2022-12-19T04:46:06.304Z,227.52
2022-12-19T04:46:38.634Z,228.15
2022-12-19T04:47:10.901Z,225.68
2022-12-19T04:47:43.121Z,225.95
2022-12-19T04:48:15.458Z,226.02
2022-12-19T04:48:47.714Z,229.90
2022-12-19T04:49:20.080Z,223.88
2022-12-19T04:49:52.322Z,224.68
2022-12-19T04:50:24.695Z,224.32
2022-12-19T04:50:57.440Z,229.07
2022-12-19T04:51:30.009Z,224.68
2022-12-19T04:52:02.405Z,229.48
2022-12-19T04:52:34.771Z,229.80
2022-12-19T04:53:07.091Z,228.05
2022-12-19T04:53:39.624Z,224.77
2022-12-19T04:54:12.100Z,229.90
2022-12-19T04:54:44.704Z,226.63
2022-12-19T04:55:17.165Z,228.43
2022-12-19T04:55:49.527Z,231.57
2022-12-19T04:56:22.013Z,224.60
2022-12-19T04:56:54.707Z,228.82
2022-12-19T04:57:29.753Z,224.93
2022-12-19T04:58:02.220Z,227.18
2022-12-19T04:58:34.698Z,225.73
2022-12-19T04:59:07.244Z,228.93
2022-12-19T04:59:39.516Z,233.15
2022-12-19T05:00:12.495Z,226.25
2022-12-19T05:00:44.725Z,227.27
2022-12-19T05:01:18.811Z,232.80
2022-12-19T05:01:51.404Z,227.02
2022-12-19T05:02:24.652Z,230.77
2022-12-19T05:02:57.387Z,228.85
2022-12-19T05:03:29.927Z,228.93
2022-12-19T05:04:04.626Z,223.98
2022-12-19T05:04:37.236Z,229.25
2022-12-19T05:05:10.114Z,225.38
2022-12-19T05:05:42.500Z,227.05
2022-12-19T05:06:15.307Z,232.13
2022-12-19T05:06:47.513Z,229.68
2022-12-19T05:07:19.863Z,225.45
2022-12-19T05:07:52.146Z,224.77
2022-12-19T05:08:24.411Z,223.05
2022-12-19T05:08:56.668Z,224.88
2022-12-19T05:09:28.950Z,228.85
2022-12-19T05:10:01.285Z,231.18
2022-12-19T05:10:33.629Z,222.80
2022-12-19T05:11:06.779Z,228.45
2022-12-19T05:11:39.446Z,224.40
2022-12-19T05:12:11.945Z,225.88
2022-12-19T05:12:44.390Z,228.38
2022-12-19T05:13:16.677Z,227.63
2022-12-19T05:13:50.297Z,224.85
2022-12-19T05:14:22.558Z,229.98
2022-12-19T05:14:54.801Z,225.75
2022-12-19T05:15:27.080Z,227.63
2022-12-19T05:16:00.178Z,225.32
2022-12-19T05:16:32.678Z,234.77
2022-12-19T05:17:05.080Z,226.30
2022-12-19T05:17:37.501Z,234.50
2022-12-19T05:18:10.411Z,225.88
2022-12-19T05:18:42.922Z,229.63
2022-12-19T05:19:17.033Z,222.88
2022-12-19T05:19:49.753Z,229.40
2022-12-19T05:20:22.086Z,229.82
2022-12-19T05:20:54.596Z,232.00
2022-12-19T05:21:27.526Z,227.43
2022-12-19T05:22:00.013Z,227.77
2022-12-19T05:22:33.371Z,231.05
2022-12-19T05:23:10.163Z,229.65
2022-12-19T05:23:47.809Z,226.27
2022-12-19T05:24:20.156Z,225.95
2022-12-19T05:24:52.580Z,221.57
2022-12-19T05:25:24.953Z,225.75
2022-12-19T05:26:00.847Z,219.13
2022-12-19T05:26:33.248Z,221.70
2022-12-19T05:27:05.535Z,230.40
2022-12-19T05:27:37.892Z,226.55
2022-12-19T05:28:10.385Z,222.73
2022-12-19T05:28:42.829Z,229.20
2022-12-19T05:29:15.318Z,225.93
2022-12-19T05:29:47.622Z,226.27
2022-12-19T05:30:20.124Z,222.50
2022-12-19T05:30:52.748Z,230.25
2022-12-19T05:31:25.192Z,229.05
2022-12-19T05:31:57.511Z,226.80
2022-12-19T05:32:31.935Z,225.45
2022-12-19T05:33:04.261Z,225.80
2022-12-19T05:33:37.152Z,225.32
2022-12-19T05:34:09.426Z,228.00
2022-12-19T05:34:41.723Z,227.45
2022-12-19T05:35:14.167Z,224.55
2022-12-19T05:35:47.933Z,227.30
2022-12-19T05:36:20.399Z,223.43
2022-12-19T05:36:53.058Z,219.80
2022-12-19T05:37:25.565Z,219.07
2022-12-19T05:37:57.900Z,221.52
2022-12-19T05:38:31.011Z,223.35
2022-12-19T05:39:03.324Z,223.57
2022-12-19T05:39:35.787Z,222.50
2022-12-19T05:40:08.308Z,226.70
2022-12-19T05:40:43.358Z,221.13
2022-12-19T05:41:17.077Z,224.90
2022-12-19T05:41:49.466Z,217.55
2022-12-19T05:42:21.765Z,221.68
2022-12-19T05:42:54.029Z,221.60
2022-12-19T05:43:26.481Z,219.13
2022-12-19T05:43:58.894Z,220.85
2022-12-19T05:44:31.156Z,224.57
2022-12-19T05:45:03.490Z,222.23
2022-12-19T05:45:35.855Z,223.07
2022-12-19T05:46:09.945Z,223.23
2022-12-19T05:46:42.319Z,223.82
2022-12-19T05:47:14.567Z,224.80
2022-12-19T05:47:47.490Z,225.20
2022-12-19T05:48:19.862Z,225.50
2022-12-19T05:48:52.198Z,223.40
2022-12-19T05:49:24.631Z,225.75
2022-12-19T05:49:57.404Z,226.07
2022-12-19T05:50:29.690Z,219.13
2022-12-19T05:51:14.249Z,226.10
2022-12-19T05:51:46.486Z,223.55
2022-12-19T05:52:18.822Z,221.95
2022-12-19T05:52:51.206Z,223.07
2022-12-19T05:53:26.113Z,224.15
2022-12-19T05:54:00.535Z,222.55
2022-12-19T05:54:32.798Z,221.30
2022-12-19T05:55:05.700Z,219.85
2022-12-19T05:55:37.955Z,225.35
2022-12-19T05:56:11.740Z,222.40
2022-12-19T05:56:43.991Z,223.77
2022-12-19T05:57:16.517Z,224.50
2022-12-19T05:57:48.904Z,222.52
2022-12-19T05:58:21.180Z,219.98
2022-12-19T05:58:54.918Z,230.57
2022-12-19T05:59:27.164Z,225.63
2022-12-19T05:59:59.519Z,229.35
2022-12-19T06:00:31.966Z,219.77
2022-12-19T06:01:08.461Z,223.15
2022-12-19T06:01:41.096Z,225.20
2022-12-19T06:02:13.579Z,234.10
2022-12-19T06:02:46.265Z,222.50
2022-12-19T06:03:18.762Z,226.95
2022-12-19T06:03:51.752Z,226.05
2022-12-19T06:04:24.192Z,225.02
2022-12-19T06:04:56.376Z,223.43
2022-12-19T06:05:28.686Z,223.82
2022-12-19T06:06:05.218Z,224.50
2022-12-19T06:06:37.721Z,220.88
2022-12-19T06:07:09.948Z,222.77
2022-12-19T06:07:42.210Z,220.80
2022-12-19T06:08:14.461Z,224.48
2022-12-19T06:08:46.831Z,222.10
2022-12-19T06:09:19.195Z,222.52
2022-12-19T06:09:51.730Z,227.65
2022-12-19T06:10:23.945Z,221.18
2022-12-19T06:10:58.308Z,220.65
2022-12-19T06:11:30.684Z,221.98
2022-12-19T06:12:02.901Z,222.38
2022-12-19T06:12:35.200Z,224.60
2022-12-19T06:13:07.481Z,223.70
2022-12-19T06:13:40.272Z,223.00
2022-12-19T06:14:12.750Z,224.57
2022-12-19T06:14:45.003Z,221.68
2022-12-19T06:15:17.266Z,224.90
2022-12-19T06:15:49.545Z,223.48
2022-12-19T06:16:23.027Z,225.55
2022-12-19T06:16:55.531Z,218.57
2022-12-19T06:17:27.976Z,224.82
2022-12-19T06:18:00.273Z,220.27
2022-12-19T06:18:32.586Z,222.90
2022-12-19T06:19:05.408Z,225.38
2022-12-19T06:19:37.929Z,221.07
2022-12-19T06:20:10.659Z,225.68
2022-12-19T06:20:42.999Z,222.60
2022-12-19T06:21:19.619Z,222.05
2022-12-19T06:21:52.020Z,219.85
2022-12-19T06:22:24.488Z,221.40
2022-12-19T06:22:56.762Z,217.90
2022-12-19T06:23:29.983Z,216.45
2022-12-19T06:24:02.247Z,218.90
2022-12-19T06:24:34.927Z,220.23
2022-12-19T06:25:07.914Z,221.95
2022-12-19T06:25:40.369Z,221.48
2022-12-19T06:26:18.653Z,221.63
2022-12-19T06:26:51.596Z,216.32
2022-12-19T06:27:24.162Z,217.52
2022-12-19T06:27:56.491Z,219.50
2022-12-19T06:28:29.812Z,209.60
2022-12-19T06:29:02.265Z,217.20
2022-12-19T06:29:34.723Z,221.20
2022-12-19T06:30:07.390Z,217.65
2022-12-19T06:30:41.127Z,218.65
2022-12-19T06:31:14.203Z,221.10
2022-12-19T06:31:46.706Z,221.13
2022-12-19T06:32:19.784Z,228.25
2022-12-19T06:32:52.472Z,226.65
2022-12-19T06:33:25.177Z,214.10
2022-12-19T06:33:57.485Z,220.52
2022-12-19T06:35:02.060Z,219.10
2022-12-19T06:35:22.375Z,221.88
2022-12-19T06:36:05.226Z,222.18
2022-12-19T06:36:38.008Z,218.57
2022-12-19T06:37:10.264Z,219.90
2022-12-19T06:37:42.745Z,220.43
2022-12-19T06:38:15.226Z,221.40
2022-12-19T06:38:48.032Z,229.27
2022-12-19T06:39:20.315Z,226.18
2022-12-19T06:39:52.586Z,228.70
2022-12-19T06:40:43.147Z,226.45
2022-12-19T06:41:34.528Z,223.40
2022-12-19T06:42:23.294Z,219.18
2022-12-19T06:42:55.554Z,219.40
2022-12-19T06:43:27.862Z,216.43
2022-12-19T06:44:00.925Z,219.05
2022-12-19T06:44:33.510Z,223.45
2022-12-19T06:45:06.060Z,225.45
2022-12-19T06:45:38.434Z,224.63
2022-12-19T06:46:10.872Z,223.57
2022-12-19T06:46:43.360Z,218.93
2022-12-19T06:47:16.892Z,226.18
2022-12-19T06:47:50.274Z,222.60
2022-12-19T06:48:23.655Z,224.63
2022-12-19T06:48:57.347Z,221.77
2022-12-19T06:49:30.727Z,224.10
2022-12-19T06:50:04.517Z,220.52
2022-12-19T06:50:37.904Z,218.30
2022-12-19T06:51:11.179Z,220.05
2022-12-19T06:51:44.467Z,222.43
2022-12-19T06:52:18.373Z,223.35
2022-12-19T06:52:52.020Z,226.32
2022-12-19T06:53:25.938Z,222.88
2022-12-19T06:53:59.743Z,222.20
2022-12-19T06:54:33.214Z,222.52
2022-12-19T06:55:06.697Z,226.93
2022-12-19T06:55:40.090Z,223.50
2022-12-19T06:56:14.504Z,221.55
2022-12-19T06:56:47.871Z,222.68
2022-12-19T06:57:21.160Z,222.23
2022-12-19T06:57:54.539Z,219.48
2022-12-19T06:58:28.233Z,217.88
2022-12-19T06:59:01.509Z,220.43
2022-12-19T06:59:34.889Z,220.73
2022-12-19T07:00:09.088Z,220.95
2022-12-19T07:00:42.625Z,224.38
2022-12-19T07:01:19.922Z,219.52
2022-12-19T07:01:53.568Z,219.07
2022-12-19T07:02:29.285Z,217.43
2022-12-19T07:03:05.416Z,220.82
2022-12-19T07:03:40.759Z,217.00
2022-12-19T07:04:16.909Z,216.18
2022-12-19T07:04:52.138Z,219.82
2022-12-19T07:05:25.524Z,231.85
2022-12-19T07:05:58.989Z,231.60
2022-12-19T07:06:32.480Z,216.60
2022-12-19T07:07:05.961Z,219.15
2022-12-19T07:07:39.344Z,221.15
2022-12-19T07:08:13.134Z,228.90
2022-12-19T07:08:46.619Z,223.50
2022-12-19T07:09:20.003Z,221.13
2022-12-19T07:09:53.286Z,219.82
2022-12-19T07:10:26.866Z,220.25
2022-12-19T07:11:00.355Z,211.93
2022-12-19T07:11:33.949Z,214.02
2022-12-19T07:12:07.326Z,214.52
2022-12-19T07:12:40.714Z,220.07
2022-12-19T07:13:14.096Z,231.80
2022-12-19T07:13:47.484Z,233.10
2022-12-19T07:14:20.653Z,240.27
2022-12-19T07:14:54.557Z,235.00
2022-12-19T07:15:28.237Z,227.65
2022-12-19T07:16:03.921Z,224.55
2022-12-19T07:16:37.341Z,223.30
2022-12-19T07:17:11.045Z,221.98
2022-12-19T07:17:44.857Z,224.43
2022-12-19T07:18:18.226Z,230.85